sensor_id;sensor_type;location;lat;lon;timestamp;P1;durP1;ratioP1;P2;durP2;ratioP2
4009;SDS011;2019;48.200;11.548;2022-09-09T00:15:12;3.80;;;2.30;;
4009;SDS011;2019;48.200;11.548;2022-09-09T00:17:48;6.50;;;2.23;;
4009;SDS011;2019;48.200;11.548;2022-09-09T00:20:25;5.33;;;2.07;;
4009;SDS011;2019;48.200;11.548;2022-09-09T00:28:30;4.73;;;2.30;;
4009;SDS011;2019;48.200;11.548;2022-09-09T00:31:04;3.53;;;2.27;;
4009;SDS011;2019;48.200;11.548;2022-09-09T00:33:38;3.97;;;2.00;;
4009;SDS011;2019;48.200;11.548;2022-09-09T00:36:09;3.37;;;2.20;;
4009;SDS011;2019;48.200;11.548;2022-09-09T00:38:47;7.73;;;2.43;;
4009;SDS011;2019;48.200;11.548;2022-09-09T00:41:26;5.40;;;2.17;;
4009;SDS011;2019;48.200;11.548;2022-09-09T00:44:18;3.10;;;2.33;;
4009;SDS011;2019;48.200;11.548;2022-09-09T00:51:59;4.10;;;2.27;;
4009;SDS011;2019;48.200;11.548;2022-09-09T00:57:38;3.57;;;2.30;;
4009;SDS011;2019;48.200;11.548;2022-09-09T01:03:10;6.20;;;3.07;;
4009;SDS011;2019;48.200;11.548;2022-09-09T01:08:42;8.60;;;2.70;;
4009;SDS011;2019;48.200;11.548;2022-09-09T01:17:08;2.90;;;2.50;;
4009;SDS011;2019;48.200;11.548;2022-09-09T01:22:16;3.83;;;2.30;;
4009;SDS011;2019;48.200;11.548;2022-09-09T01:27:54;4.17;;;2.33;;
4009;SDS011;2019;48.200;11.548;2022-09-09T01:30:23;5.43;;;2.93;;
4009;SDS011;2019;48.200;11.548;2022-09-09T01:32:55;2.70;;;2.10;;
4009;SDS011;2019;48.200;11.548;2022-09-09T01:35:29;6.03;;;2.33;;
4009;SDS011;2019;48.200;11.548;2022-09-09T01:38:15;8.53;;;3.00;;
4009;SDS011;2019;48.200;11.548;2022-09-09T01:40:42;4.47;;;2.30;;
4009;SDS011;2019;48.200;11.548;2022-09-09T01:43:08;6.27;;;2.90;;
4009;SDS011;2019;48.200;11.548;2022-09-09T01:45:34;6.53;;;2.10;;
4009;SDS011;2019;48.200;11.548;2022-09-09T01:48:01;3.80;;;2.47;;
4009;SDS011;2019;48.200;11.548;2022-09-09T01:50:27;2.30;;;1.93;;
4009;SDS011;2019;48.200;11.548;2022-09-09T01:52:55;2.70;;;2.23;;
4009;SDS011;2019;48.200;11.548;2022-09-09T01:55:26;4.20;;;2.23;;
4009;SDS011;2019;48.200;11.548;2022-09-09T02:00:44;4.97;;;3.20;;
4009;SDS011;2019;48.200;11.548;2022-09-09T02:03:27;2.90;;;2.60;;
4009;SDS011;2019;48.200;11.548;2022-09-09T02:08:42;6.10;;;2.70;;
4009;SDS011;2019;48.200;11.548;2022-09-09T02:11:16;4.57;;;2.80;;
4009;SDS011;2019;48.200;11.548;2022-09-09T02:13:44;4.17;;;2.37;;
4009;SDS011;2019;48.200;11.548;2022-09-09T02:16:28;9.60;;;3.10;;
4009;SDS011;2019;48.200;11.548;2022-09-09T02:21:35;3.50;;;2.40;;
4009;SDS011;2019;48.200;11.548;2022-09-09T02:24:02;6.00;;;2.57;;
4009;SDS011;2019;48.200;11.548;2022-09-09T02:26:33;4.57;;;2.70;;
4009;SDS011;2019;48.200;11.548;2022-09-09T02:29:01;3.10;;;2.30;;
4009;SDS011;2019;48.200;11.548;2022-09-09T02:31:29;3.57;;;2.67;;
4009;SDS011;2019;48.200;11.548;2022-09-09T02:33:59;6.80;;;2.60;;
4009;SDS011;2019;48.200;11.548;2022-09-09T02:36:28;3.33;;;2.43;;
4009;SDS011;2019;48.200;11.548;2022-09-09T02:38:58;3.30;;;2.87;;
4009;SDS011;2019;48.200;11.548;2022-09-09T02:41:32;6.00;;;2.77;;
4009;SDS011;2019;48.200;11.548;2022-09-09T02:44:00;4.53;;;2.80;;
4009;SDS011;2019;48.200;11.548;2022-09-09T02:49:28;4.57;;;2.93;;
4009;SDS011;2019;48.200;11.548;2022-09-09T02:52:25;6.33;;;2.60;;
4009;SDS011;2019;48.200;11.548;2022-09-09T02:54:57;5.63;;;2.43;;
4009;SDS011;2019;48.200;11.548;2022-09-09T02:57:30;4.10;;;2.70;;
4009;SDS011;2019;48.200;11.548;2022-09-09T02:59:58;3.20;;;2.57;;
4009;SDS011;2019;48.200;11.548;2022-09-09T03:02:32;4.80;;;2.90;;
4009;SDS011;2019;48.200;11.548;2022-09-09T03:04:58;4.10;;;2.43;;
4009;SDS011;2019;48.200;11.548;2022-09-09T03:07:24;4.67;;;3.00;;
4009;SDS011;2019;48.200;11.548;2022-09-09T03:09:49;5.27;;;3.10;;
4009;SDS011;2019;48.200;11.548;2022-09-09T03:12:15;7.50;;;2.93;;
4009;SDS011;2019;48.200;11.548;2022-09-09T03:14:41;4.10;;;2.50;;
4009;SDS011;2019;48.200;11.548;2022-09-09T03:17:08;5.00;;;2.37;;
4009;SDS011;2019;48.200;11.548;2022-09-09T03:19:34;7.10;;;2.80;;
4009;SDS011;2019;48.200;11.548;2022-09-09T03:22:00;3.97;;;2.30;;
4009;SDS011;2019;48.200;11.548;2022-09-09T03:24:26;5.80;;;2.50;;
4009;SDS011;2019;48.200;11.548;2022-09-09T03:26:51;4.00;;;2.10;;
4009;SDS011;2019;48.200;11.548;2022-09-09T03:29:17;4.00;;;2.30;;
4009;SDS011;2019;48.200;11.548;2022-09-09T03:31:43;2.70;;;1.83;;
4009;SDS011;2019;48.200;11.548;2022-09-09T03:34:09;4.43;;;2.30;;
4009;SDS011;2019;48.200;11.548;2022-09-09T03:36:35;6.77;;;3.07;;
4009;SDS011;2019;48.200;11.548;2022-09-09T03:39:02;4.30;;;2.47;;
4009;SDS011;2019;48.200;11.548;2022-09-09T03:41:28;2.63;;;2.07;;
4009;SDS011;2019;48.200;11.548;2022-09-09T03:43:54;4.07;;;2.57;;
4009;SDS011;2019;48.200;11.548;2022-09-09T03:46:20;5.00;;;2.10;;
4009;SDS011;2019;48.200;11.548;2022-09-09T03:48:47;3.00;;;2.07;;
4009;SDS011;2019;48.200;11.548;2022-09-09T03:51:13;4.17;;;2.60;;
4009;SDS011;2019;48.200;11.548;2022-09-09T03:53:40;4.10;;;2.37;;
4009;SDS011;2019;48.200;11.548;2022-09-09T03:56:05;3.03;;;2.50;;
4009;SDS011;2019;48.200;11.548;2022-09-09T03:58:35;3.17;;;2.07;;
4009;SDS011;2019;48.200;11.548;2022-09-09T04:01:14;12.53;;;2.80;;
4009;SDS011;2019;48.200;11.548;2022-09-09T04:03:41;6.43;;;2.20;;
4009;SDS011;2019;48.200;11.548;2022-09-09T04:06:08;2.60;;;2.27;;
4009;SDS011;2019;48.200;11.548;2022-09-09T04:08:36;3.73;;;2.10;;
4009;SDS011;2019;48.200;11.548;2022-09-09T04:11:03;3.50;;;2.33;;
4009;SDS011;2019;48.200;11.548;2022-09-09T04:13:31;4.40;;;2.33;;
4009;SDS011;2019;48.200;11.548;2022-09-09T04:16:02;5.53;;;2.00;;
4009;SDS011;2019;48.200;11.548;2022-09-09T04:18:29;2.17;;;1.73;;
4009;SDS011;2019;48.200;11.548;2022-09-09T04:20:55;3.70;;;2.47;;
4009;SDS011;2019;48.200;11.548;2022-09-09T04:23:24;4.40;;;1.80;;
4009;SDS011;2019;48.200;11.548;2022-09-09T04:25:51;3.80;;;1.97;;
4009;SDS011;2019;48.200;11.548;2022-09-09T04:28:19;5.30;;;2.27;;
4009;SDS011;2019;48.200;11.548;2022-09-09T04:30:46;3.43;;;1.80;;
4009;SDS011;2019;48.200;11.548;2022-09-09T04:33:12;4.90;;;2.30;;
4009;SDS011;2019;48.200;11.548;2022-09-09T04:35:39;9.30;;;2.50;;
4009;SDS011;2019;48.200;11.548;2022-09-09T04:38:08;3.87;;;2.47;;
4009;SDS011;2019;48.200;11.548;2022-09-09T04:40:34;9.27;;;2.60;;
4009;SDS011;2019;48.200;11.548;2022-09-09T04:43:01;4.13;;;2.63;;
4009;SDS011;2019;48.200;11.548;2022-09-09T04:45:30;6.60;;;2.60;;
4009;SDS011;2019;48.200;11.548;2022-09-09T04:47:56;4.20;;;2.20;;
4009;SDS011;2019;48.200;11.548;2022-09-09T04:50:22;4.23;;;2.87;;
4009;SDS011;2019;48.200;11.548;2022-09-09T04:52:47;4.63;;;2.30;;
4009;SDS011;2019;48.200;11.548;2022-09-09T04:55:13;5.50;;;2.23;;
4009;SDS011;2019;48.200;11.548;2022-09-09T04:57:39;4.50;;;2.57;;
4009;SDS011;2019;48.200;11.548;2022-09-09T05:00:05;3.87;;;2.40;;
4009;SDS011;2019;48.200;11.548;2022-09-09T05:02:31;5.10;;;2.20;;
4009;SDS011;2019;48.200;11.548;2022-09-09T05:04:57;4.50;;;2.30;;
4009;SDS011;2019;48.200;11.548;2022-09-09T05:07:23;3.73;;;2.50;;
4009;SDS011;2019;48.200;11.548;2022-09-09T05:09:51;6.93;;;2.50;;
4009;SDS011;2019;48.200;11.548;2022-09-09T05:12:16;5.63;;;2.47;;
4009;SDS011;2019;48.200;11.548;2022-09-09T05:14:43;3.77;;;2.57;;
4009;SDS011;2019;48.200;11.548;2022-09-09T05:17:08;4.80;;;2.30;;
4009;SDS011;2019;48.200;11.548;2022-09-09T05:19:34;3.23;;;2.03;;
4009;SDS011;2019;48.200;11.548;2022-09-09T05:22:00;4.40;;;2.40;;
4009;SDS011;2019;48.200;11.548;2022-09-09T05:24:26;3.47;;;2.67;;
4009;SDS011;2019;48.200;11.548;2022-09-09T05:26:52;3.60;;;2.30;;
4009;SDS011;2019;48.200;11.548;2022-09-09T05:29:17;6.00;;;2.60;;
4009;SDS011;2019;48.200;11.548;2022-09-09T05:31:46;4.17;;;2.53;;
4009;SDS011;2019;48.200;11.548;2022-09-09T05:34:12;3.50;;;2.40;;
4009;SDS011;2019;48.200;11.548;2022-09-09T05:36:40;6.50;;;2.83;;
4009;SDS011;2019;48.200;11.548;2022-09-09T05:39:06;7.03;;;2.67;;
4009;SDS011;2019;48.200;11.548;2022-09-09T05:41:31;5.30;;;2.83;;
4009;SDS011;2019;48.200;11.548;2022-09-09T05:43:57;9.07;;;2.73;;
4009;SDS011;2019;48.200;11.548;2022-09-09T05:46:26;6.90;;;3.20;;
4009;SDS011;2019;48.200;11.548;2022-09-09T05:48:52;6.27;;;3.53;;
4009;SDS011;2019;48.200;11.548;2022-09-09T05:51:22;4.67;;;2.67;;
4009;SDS011;2019;48.200;11.548;2022-09-09T05:53:51;5.50;;;3.10;;
4009;SDS011;2019;48.200;11.548;2022-09-09T05:56:18;7.07;;;2.80;;
4009;SDS011;2019;48.200;11.548;2022-09-09T05:58:50;7.63;;;2.77;;
4009;SDS011;2019;48.200;11.548;2022-09-09T06:01:19;7.00;;;2.63;;
4009;SDS011;2019;48.200;11.548;2022-09-09T06:03:48;8.17;;;3.37;;
4009;SDS011;2019;48.200;11.548;2022-09-09T06:06:19;10.10;;;3.47;;
4009;SDS011;2019;48.200;11.548;2022-09-09T06:08:46;6.80;;;2.70;;
4009;SDS011;2019;48.200;11.548;2022-09-09T06:11:14;10.83;;;3.00;;
4009;SDS011;2019;48.200;11.548;2022-09-09T06:13:41;11.43;;;2.63;;
4009;SDS011;2019;48.200;11.548;2022-09-09T06:16:11;6.00;;;2.83;;
4009;SDS011;2019;48.200;11.548;2022-09-09T06:18:44;4.30;;;2.70;;
4009;SDS011;2019;48.200;11.548;2022-09-09T06:23:41;7.47;;;2.13;;
4009;SDS011;2019;48.200;11.548;2022-09-09T06:26:11;10.70;;;2.70;;
4009;SDS011;2019;48.200;11.548;2022-09-09T06:28:38;9.90;;;3.40;;
4009;SDS011;2019;48.200;11.548;2022-09-09T06:31:05;13.10;;;2.90;;
4009;SDS011;2019;48.200;11.548;2022-09-09T06:33:36;6.80;;;2.97;;
4009;SDS011;2019;48.200;11.548;2022-09-09T06:36:13;6.03;;;2.67;;
4009;SDS011;2019;48.200;11.548;2022-09-09T06:38:41;12.40;;;3.00;;
4009;SDS011;2019;48.200;11.548;2022-09-09T06:41:08;4.80;;;2.30;;
4009;SDS011;2019;48.200;11.548;2022-09-09T06:43:34;6.50;;;3.23;;
4009;SDS011;2019;48.200;11.548;2022-09-09T06:46:01;5.37;;;2.30;;
4009;SDS011;2019;48.200;11.548;2022-09-09T06:48:33;4.33;;;2.57;;
4009;SDS011;2019;48.200;11.548;2022-09-09T06:51:12;5.53;;;2.43;;
4009;SDS011;2019;48.200;11.548;2022-09-09T06:53:41;12.73;;;6.80;;
4009;SDS011;2019;48.200;11.548;2022-09-09T06:58:40;4.07;;;2.30;;
4009;SDS011;2019;48.200;11.548;2022-09-09T07:01:08;2.40;;;1.90;;
4009;SDS011;2019;48.200;11.548;2022-09-09T07:03:34;2.20;;;1.60;;
4009;SDS011;2019;48.200;11.548;2022-09-09T07:06:00;2.63;;;1.83;;
4009;SDS011;2019;48.200;11.548;2022-09-09T07:08:26;5.47;;;2.20;;
4009;SDS011;2019;48.200;11.548;2022-09-09T07:10:53;3.57;;;2.07;;
4009;SDS011;2019;48.200;11.548;2022-09-09T07:13:23;3.37;;;2.27;;
4009;SDS011;2019;48.200;11.548;2022-09-09T07:15:52;4.70;;;2.67;;
4009;SDS011;2019;48.200;11.548;2022-09-09T07:18:18;5.30;;;2.50;;
4009;SDS011;2019;48.200;11.548;2022-09-09T07:20:54;12.33;;;6.67;;
4009;SDS011;2019;48.200;11.548;2022-09-09T07:23:20;3.53;;;2.77;;
4009;SDS011;2019;48.200;11.548;2022-09-09T07:25:46;2.90;;;2.20;;
4009;SDS011;2019;48.200;11.548;2022-09-09T07:28:12;3.73;;;2.00;;
4009;SDS011;2019;48.200;11.548;2022-09-09T07:30:39;5.17;;;2.50;;
4009;SDS011;2019;48.200;11.548;2022-09-09T07:33:05;5.47;;;2.80;;
4009;SDS011;2019;48.200;11.548;2022-09-09T07:35:31;3.57;;;2.30;;
4009;SDS011;2019;48.200;11.548;2022-09-09T07:37:57;8.93;;;2.87;;
4009;SDS011;2019;48.200;11.548;2022-09-09T07:40:25;3.30;;;2.43;;
4009;SDS011;2019;48.200;11.548;2022-09-09T07:42:51;4.90;;;2.90;;
4009;SDS011;2019;48.200;11.548;2022-09-09T07:45:16;3.87;;;2.80;;
4009;SDS011;2019;48.200;11.548;2022-09-09T07:47:42;3.37;;;2.30;;
4009;SDS011;2019;48.200;11.548;2022-09-09T07:50:08;6.00;;;2.40;;
4009;SDS011;2019;48.200;11.548;2022-09-09T07:52:34;5.40;;;3.23;;
4009;SDS011;2019;48.200;11.548;2022-09-09T07:55:00;6.43;;;2.77;;
4009;SDS011;2019;48.200;11.548;2022-09-09T07:57:28;8.37;;;3.23;;
4009;SDS011;2019;48.200;11.548;2022-09-09T07:59:55;6.53;;;5.00;;
4009;SDS011;2019;48.200;11.548;2022-09-09T08:02:22;5.27;;;2.93;;
4009;SDS011;2019;48.200;11.548;2022-09-09T08:04:49;3.50;;;2.37;;
4009;SDS011;2019;48.200;11.548;2022-09-09T08:07:14;3.70;;;2.63;;
4009;SDS011;2019;48.200;11.548;2022-09-09T08:09:41;6.03;;;2.93;;
4009;SDS011;2019;48.200;11.548;2022-09-09T08:12:07;4.90;;;2.60;;
4009;SDS011;2019;48.200;11.548;2022-09-09T08:14:34;6.43;;;2.73;;
4009;SDS011;2019;48.200;11.548;2022-09-09T08:16:59;5.50;;;2.73;;
4009;SDS011;2019;48.200;11.548;2022-09-09T08:19:25;6.40;;;3.13;;
4009;SDS011;2019;48.200;11.548;2022-09-09T08:21:54;8.70;;;3.27;;
4009;SDS011;2019;48.200;11.548;2022-09-09T08:24:19;4.70;;;2.80;;
4009;SDS011;2019;48.200;11.548;2022-09-09T08:26:46;7.40;;;3.30;;
4009;SDS011;2019;48.200;11.548;2022-09-09T08:29:14;5.30;;;3.47;;
4009;SDS011;2019;48.200;11.548;2022-09-09T08:31:44;5.17;;;3.10;;
4009;SDS011;2019;48.200;11.548;2022-09-09T08:34:15;5.20;;;3.10;;
4009;SDS011;2019;48.200;11.548;2022-09-09T08:36:41;6.13;;;2.80;;
4009;SDS011;2019;48.200;11.548;2022-09-09T08:39:10;4.50;;;3.30;;
4009;SDS011;2019;48.200;11.548;2022-09-09T08:53:00;5.63;;;3.03;;
4009;SDS011;2019;48.200;11.548;2022-09-09T08:55:48;6.43;;;2.93;;
4009;SDS011;2019;48.200;11.548;2022-09-09T09:00:45;5.40;;;3.57;;
4009;SDS011;2019;48.200;11.548;2022-09-09T09:03:34;7.63;;;3.47;;
4009;SDS011;2019;48.200;11.548;2022-09-09T09:09:38;6.83;;;3.00;;
4009;SDS011;2019;48.200;11.548;2022-09-09T09:11:49;5.17;;;3.27;;
4009;SDS011;2019;48.200;11.548;2022-09-09T09:14:21;7.90;;;3.70;;
4009;SDS011;2019;48.200;11.548;2022-09-09T09:17:02;4.40;;;2.70;;
4009;SDS011;2019;48.200;11.548;2022-09-09T09:19:32;4.03;;;2.13;;
4009;SDS011;2019;48.200;11.548;2022-09-09T09:27:15;5.00;;;2.87;;
4009;SDS011;2019;48.200;11.548;2022-09-09T09:29:55;5.17;;;2.80;;
4009;SDS011;2019;48.200;11.548;2022-09-09T09:32:23;6.10;;;2.93;;
4009;SDS011;2019;48.200;11.548;2022-09-09T09:34:51;4.70;;;2.60;;
4009;SDS011;2019;48.200;11.548;2022-09-09T09:37:31;4.23;;;2.80;;
4009;SDS011;2019;48.200;11.548;2022-09-09T09:40:13;4.43;;;3.03;;
4009;SDS011;2019;48.200;11.548;2022-09-09T09:42:51;4.63;;;2.90;;
4009;SDS011;2019;48.200;11.548;2022-09-09T09:45:43;4.63;;;3.10;;
4009;SDS011;2019;48.200;11.548;2022-09-09T09:48:12;5.73;;;3.00;;
4009;SDS011;2019;48.200;11.548;2022-09-09T09:50:52;5.27;;;2.63;;
4009;SDS011;2019;48.200;11.548;2022-09-09T09:53:27;7.70;;;2.87;;
4009;SDS011;2019;48.200;11.548;2022-09-09T09:55:59;4.60;;;2.27;;
4009;SDS011;2019;48.200;11.548;2022-09-09T09:58:27;3.37;;;2.50;;
4009;SDS011;2019;48.200;11.548;2022-09-09T10:00:58;5.03;;;2.20;;
4009;SDS011;2019;48.200;11.548;2022-09-09T10:03:26;4.63;;;2.20;;
4009;SDS011;2019;48.200;11.548;2022-09-09T10:05:54;4.97;;;2.80;;
4009;SDS011;2019;48.200;11.548;2022-09-09T10:08:21;3.70;;;2.53;;
4009;SDS011;2019;48.200;11.548;2022-09-09T10:13:27;3.80;;;2.10;;
4009;SDS011;2019;48.200;11.548;2022-09-09T10:16:17;6.47;;;2.47;;
4009;SDS011;2019;48.200;11.548;2022-09-09T10:45:58;3.80;;;2.10;;
4009;SDS011;2019;48.200;11.548;2022-09-09T10:51:30;4.40;;;2.13;;
4009;SDS011;2019;48.200;11.548;2022-09-09T10:56:56;2.97;;;2.27;;
4009;SDS011;2019;48.200;11.548;2022-09-09T10:59:28;6.57;;;2.30;;
4009;SDS011;2019;48.200;11.548;2022-09-09T11:02:05;4.63;;;2.00;;
4009;SDS011;2019;48.200;11.548;2022-09-09T11:04:41;3.23;;;2.10;;
4009;SDS011;2019;48.200;11.548;2022-09-09T11:08:09;6.90;;;2.10;;
4009;SDS011;2019;48.200;11.548;2022-09-09T11:10:39;2.53;;;1.90;;
4009;SDS011;2019;48.200;11.548;2022-09-09T11:13:22;3.20;;;1.90;;
4009;SDS011;2019;48.200;11.548;2022-09-09T11:15:52;3.43;;;2.00;;
4009;SDS011;2019;48.200;11.548;2022-09-09T11:18:29;2.63;;;2.10;;
4009;SDS011;2019;48.200;11.548;2022-09-09T11:21:02;3.60;;;2.00;;
4009;SDS011;2019;48.200;11.548;2022-09-09T11:23:40;3.23;;;1.63;;
4009;SDS011;2019;48.200;11.548;2022-09-09T11:26:15;2.90;;;1.60;;
4009;SDS011;2019;48.200;11.548;2022-09-09T11:31:53;1.63;;;1.33;;
4009;SDS011;2019;48.200;11.548;2022-09-09T11:37:47;3.70;;;1.90;;
4009;SDS011;2019;48.200;11.548;2022-09-09T11:40:36;2.50;;;1.10;;
4009;SDS011;2019;48.200;11.548;2022-09-09T11:43:02;6.00;;;1.63;;
4009;SDS011;2019;48.200;11.548;2022-09-09T11:45:51;3.73;;;1.67;;
4009;SDS011;2019;48.200;11.548;2022-09-09T11:48:26;5.70;;;1.60;;
4009;SDS011;2019;48.200;11.548;2022-09-09T11:53:30;2.50;;;1.13;;
4009;SDS011;2019;48.200;11.548;2022-09-09T11:56:04;3.77;;;1.67;;
4009;SDS011;2019;48.200;11.548;2022-09-09T11:58:42;5.47;;;1.90;;
4009;SDS011;2019;48.200;11.548;2022-09-09T12:01:14;2.50;;;1.23;;
4009;SDS011;2019;48.200;11.548;2022-09-09T12:03:50;3.37;;;1.60;;
4009;SDS011;2019;48.200;11.548;2022-09-09T12:06:30;4.90;;;1.50;;
4009;SDS011;2019;48.200;11.548;2022-09-09T12:09:08;2.57;;;1.30;;
4009;SDS011;2019;48.200;11.548;2022-09-09T12:11:40;2.97;;;1.50;;
4009;SDS011;2019;48.200;11.548;2022-09-09T12:14:18;4.00;;;1.50;;
4009;SDS011;2019;48.200;11.548;2022-09-09T12:17:17;2.90;;;1.60;;
4009;SDS011;2019;48.200;11.548;2022-09-09T12:33:33;3.40;;;1.47;;
4009;SDS011;2019;48.200;11.548;2022-09-09T12:36:00;2.67;;;1.50;;
4009;SDS011;2019;48.200;11.548;2022-09-09T12:38:34;2.90;;;1.60;;
4009;SDS011;2019;48.200;11.548;2022-09-09T12:41:04;2.90;;;1.47;;
4009;SDS011;2019;48.200;11.548;2022-09-09T12:43:30;3.23;;;1.30;;
4009;SDS011;2019;48.200;11.548;2022-09-09T12:46:03;2.67;;;1.40;;
4009;SDS011;2019;48.200;11.548;2022-09-09T12:48:35;3.10;;;1.20;;
4009;SDS011;2019;48.200;11.548;2022-09-09T12:51:03;4.37;;;1.67;;
4009;SDS011;2019;48.200;11.548;2022-09-09T12:53:33;2.17;;;1.40;;
4009;SDS011;2019;48.200;11.548;2022-09-09T12:56:04;2.97;;;1.40;;
4009;SDS011;2019;48.200;11.548;2022-09-09T12:58:35;3.10;;;1.43;;
4009;SDS011;2019;48.200;11.548;2022-09-09T13:01:03;3.53;;;2.10;;
4009;SDS011;2019;48.200;11.548;2022-09-09T13:03:31;1.87;;;1.20;;
4009;SDS011;2019;48.200;11.548;2022-09-09T13:05:58;2.20;;;1.60;;
4009;SDS011;2019;48.200;11.548;2022-09-09T13:08:36;2.50;;;1.37;;
4009;SDS011;2019;48.200;11.548;2022-09-09T13:11:03;2.07;;;1.43;;
4009;SDS011;2019;48.200;11.548;2022-09-09T13:13:36;2.23;;;1.30;;
4009;SDS011;2019;48.200;11.548;2022-09-09T13:16:06;4.70;;;1.40;;
4009;SDS011;2019;48.200;11.548;2022-09-09T13:18:44;3.07;;;1.30;;
4009;SDS011;2019;48.200;11.548;2022-09-09T13:21:11;1.60;;;1.23;;
4009;SDS011;2019;48.200;11.548;2022-09-09T13:23:37;2.70;;;1.27;;
4009;SDS011;2019;48.200;11.548;2022-09-09T13:26:23;2.20;;;1.50;;
4009;SDS011;2019;48.200;11.548;2022-09-09T13:28:51;4.73;;;1.47;;
4009;SDS011;2019;48.200;11.548;2022-09-09T13:33:53;1.73;;;1.23;;
4009;SDS011;2019;48.200;11.548;2022-09-09T13:36:32;2.80;;;1.40;;
4009;SDS011;2019;48.200;11.548;2022-09-09T13:39:00;2.67;;;1.40;;
4009;SDS011;2019;48.200;11.548;2022-09-09T13:41:41;2.60;;;1.20;;
4009;SDS011;2019;48.200;11.548;2022-09-09T13:44:23;3.47;;;1.20;;
4009;SDS011;2019;48.200;11.548;2022-09-09T13:49:29;1.63;;;1.13;;
4009;SDS011;2019;48.200;11.548;2022-09-09T13:52:11;2.23;;;1.27;;
4009;SDS011;2019;48.200;11.548;2022-09-09T13:54:39;2.70;;;1.10;;
4009;SDS011;2019;48.200;11.548;2022-09-09T13:57:11;1.77;;;0.90;;
4009;SDS011;2019;48.200;11.548;2022-09-09T13:59:46;3.40;;;1.17;;
4009;SDS011;2019;48.200;11.548;2022-09-09T14:02:13;2.70;;;1.17;;
4009;SDS011;2019;48.200;11.548;2022-09-09T14:04:39;1.50;;;0.90;;
4009;SDS011;2019;48.200;11.548;2022-09-09T14:07:11;2.03;;;1.00;;
4009;SDS011;2019;48.200;11.548;2022-09-09T14:09:38;2.80;;;1.37;;
4009;SDS011;2019;48.200;11.548;2022-09-09T14:12:04;2.73;;;1.20;;
4009;SDS011;2019;48.200;11.548;2022-09-09T14:14:30;2.77;;;1.30;;
4009;SDS011;2019;48.200;11.548;2022-09-09T14:16:55;1.60;;;1.00;;
4009;SDS011;2019;48.200;11.548;2022-09-09T14:19:21;5.00;;;1.20;;
4009;SDS011;2019;48.200;11.548;2022-09-09T14:21:47;1.83;;;1.20;;
4009;SDS011;2019;48.200;11.548;2022-09-09T14:24:13;2.50;;;1.10;;
4009;SDS011;2019;48.200;11.548;2022-09-09T14:26:39;2.90;;;1.30;;
4009;SDS011;2019;48.200;11.548;2022-09-09T14:29:05;2.60;;;1.20;;
4009;SDS011;2019;48.200;11.548;2022-09-09T14:31:31;2.83;;;1.20;;
4009;SDS011;2019;48.200;11.548;2022-09-09T14:33:57;2.57;;;1.33;;
4009;SDS011;2019;48.200;11.548;2022-09-09T14:36:23;7.37;;;1.97;;
4009;SDS011;2019;48.200;11.548;2022-09-09T14:38:49;3.37;;;1.53;;
4009;SDS011;2019;48.200;11.548;2022-09-09T14:41:16;1.60;;;1.10;;
4009;SDS011;2019;48.200;11.548;2022-09-09T14:43:43;2.07;;;1.07;;
4009;SDS011;2019;48.200;11.548;2022-09-09T14:46:16;3.80;;;1.40;;
4009;SDS011;2019;48.200;11.548;2022-09-09T14:48:43;1.67;;;1.13;;
4009;SDS011;2019;48.200;11.548;2022-09-09T14:51:11;3.90;;;1.30;;
4009;SDS011;2019;48.200;11.548;2022-09-09T14:53:38;3.63;;;1.27;;
4009;SDS011;2019;48.200;11.548;2022-09-09T14:56:08;2.03;;;1.20;;
4009;SDS011;2019;48.200;11.548;2022-09-09T14:58:39;2.77;;;1.40;;
4009;SDS011;2019;48.200;11.548;2022-09-09T15:01:06;17.90;;;1.60;;
4009;SDS011;2019;48.200;11.548;2022-09-09T15:03:36;1.67;;;1.10;;
4009;SDS011;2019;48.200;11.548;2022-09-09T15:06:09;2.83;;;1.60;;
4009;SDS011;2019;48.200;11.548;2022-09-09T15:08:37;1.80;;;1.20;;
4009;SDS011;2019;48.200;11.548;2022-09-09T15:11:04;2.33;;;0.97;;
4009;SDS011;2019;48.200;11.548;2022-09-09T15:13:32;1.20;;;0.93;;
4009;SDS011;2019;48.200;11.548;2022-09-09T15:16:05;2.63;;;1.10;;
4009;SDS011;2019;48.200;11.548;2022-09-09T15:18:32;3.17;;;1.43;;
4009;SDS011;2019;48.200;11.548;2022-09-09T15:21:07;3.73;;;1.23;;
4009;SDS011;2019;48.200;11.548;2022-09-09T15:23:37;2.10;;;0.90;;
4009;SDS011;2019;48.200;11.548;2022-09-09T15:26:03;2.00;;;1.23;;
4009;SDS011;2019;48.200;11.548;2022-09-09T15:28:30;5.13;;;1.63;;
4009;SDS011;2019;48.200;11.548;2022-09-09T15:30:57;6.10;;;1.30;;
4009;SDS011;2019;48.200;11.548;2022-09-09T15:33:24;2.97;;;1.47;;
4009;SDS011;2019;48.200;11.548;2022-09-09T15:35:50;2.90;;;1.30;;
4009;SDS011;2019;48.200;11.548;2022-09-09T15:38:16;3.67;;;1.07;;
4009;SDS011;2019;48.200;11.548;2022-09-09T15:40:42;2.30;;;1.10;;
4009;SDS011;2019;48.200;11.548;2022-09-09T15:43:08;2.97;;;1.00;;
4009;SDS011;2019;48.200;11.548;2022-09-09T15:45:35;2.27;;;1.30;;
4009;SDS011;2019;48.200;11.548;2022-09-09T15:48:02;2.83;;;1.30;;
4009;SDS011;2019;48.200;11.548;2022-09-09T15:50:28;1.80;;;1.10;;
4009;SDS011;2019;48.200;11.548;2022-09-09T15:52:56;2.20;;;1.10;;
4009;SDS011;2019;48.200;11.548;2022-09-09T15:55:22;5.00;;;1.60;;
4009;SDS011;2019;48.200;11.548;2022-09-09T15:57:50;5.50;;;1.40;;
4009;SDS011;2019;48.200;11.548;2022-09-09T16:00:18;2.90;;;1.20;;
4009;SDS011;2019;48.200;11.548;2022-09-09T16:02:47;2.83;;;1.20;;
4009;SDS011;2019;48.200;11.548;2022-09-09T16:05:14;5.90;;;1.30;;
4009;SDS011;2019;48.200;11.548;2022-09-09T16:07:40;5.43;;;1.37;;
4009;SDS011;2019;48.200;11.548;2022-09-09T16:10:07;7.83;;;1.77;;
4009;SDS011;2019;48.200;11.548;2022-09-09T16:12:33;2.50;;;1.27;;
4009;SDS011;2019;48.200;11.548;2022-09-09T16:14:59;4.83;;;1.80;;
4009;SDS011;2019;48.200;11.548;2022-09-09T16:17:25;2.17;;;1.30;;
4009;SDS011;2019;48.200;11.548;2022-09-09T16:19:52;4.20;;;1.40;;
4009;SDS011;2019;48.200;11.548;2022-09-09T16:22:19;4.47;;;1.43;;
4009;SDS011;2019;48.200;11.548;2022-09-09T16:24:44;2.87;;;1.10;;
4009;SDS011;2019;48.200;11.548;2022-09-09T16:27:10;4.13;;;1.37;;
4009;SDS011;2019;48.200;11.548;2022-09-09T16:29:36;3.43;;;1.70;;
4009;SDS011;2019;48.200;11.548;2022-09-09T16:32:02;2.90;;;1.37;;
4009;SDS011;2019;48.200;11.548;2022-09-09T16:34:28;4.40;;;1.60;;
4009;SDS011;2019;48.200;11.548;2022-09-09T16:36:54;3.03;;;1.30;;
4009;SDS011;2019;48.200;11.548;2022-09-09T16:39:20;3.27;;;1.40;;
4009;SDS011;2019;48.200;11.548;2022-09-09T16:41:46;2.03;;;1.13;;
4009;SDS011;2019;48.200;11.548;2022-09-09T16:44:13;1.80;;;0.90;;
4009;SDS011;2019;48.200;11.548;2022-09-09T16:46:42;3.03;;;1.20;;
4009;SDS011;2019;48.200;11.548;2022-09-09T16:49:10;3.03;;;1.00;;
4009;SDS011;2019;48.200;11.548;2022-09-09T16:51:40;1.70;;;1.00;;
4009;SDS011;2019;48.200;11.548;2022-09-09T16:54:13;2.00;;;1.10;;
4009;SDS011;2019;48.200;11.548;2022-09-09T16:56:41;1.97;;;1.37;;
4009;SDS011;2019;48.200;11.548;2022-09-09T16:59:08;3.70;;;1.10;;
4009;SDS011;2019;48.200;11.548;2022-09-09T17:01:45;2.90;;;1.20;;
4009;SDS011;2019;48.200;11.548;2022-09-09T17:04:13;3.20;;;1.43;;
4009;SDS011;2019;48.200;11.548;2022-09-09T17:06:51;2.90;;;1.23;;
4009;SDS011;2019;48.200;11.548;2022-09-09T17:09:18;2.57;;;1.20;;
4009;SDS011;2019;48.200;11.548;2022-09-09T17:11:46;3.30;;;1.40;;
4009;SDS011;2019;48.200;11.548;2022-09-09T17:14:13;3.07;;;1.60;;
4009;SDS011;2019;48.200;11.548;2022-09-09T17:16:41;3.70;;;1.60;;
4009;SDS011;2019;48.200;11.548;2022-09-09T17:19:07;3.13;;;1.40;;
4009;SDS011;2019;48.200;11.548;2022-09-09T17:21:34;2.47;;;1.00;;
4009;SDS011;2019;48.200;11.548;2022-09-09T17:24:00;1.97;;;1.10;;
4009;SDS011;2019;48.200;11.548;2022-09-09T17:26:27;6.70;;;1.37;;
4009;SDS011;2019;48.200;11.548;2022-09-09T17:28:55;2.43;;;1.33;;
4009;SDS011;2019;48.200;11.548;2022-09-09T17:31:23;1.77;;;1.27;;
4009;SDS011;2019;48.200;11.548;2022-09-09T17:33:50;3.17;;;1.67;;
4009;SDS011;2019;48.200;11.548;2022-09-09T17:36:21;2.90;;;1.40;;
4009;SDS011;2019;48.200;11.548;2022-09-09T17:38:52;5.83;;;1.87;;
4009;SDS011;2019;48.200;11.548;2022-09-09T17:41:22;2.30;;;1.53;;
4009;SDS011;2019;48.200;11.548;2022-09-09T17:43:50;1.90;;;1.50;;